createdAt,value
2017-12-27T00:00:54.283Z,98399
2017-12-27T00:06:01.947Z,98380
2017-12-27T00:11:09.524Z,98368
2017-12-27T00:16:16.941Z,98365
2017-12-27T00:21:24.568Z,98354
2017-12-27T00:26:32.217Z,98335
2017-12-27T00:31:34.413Z,98311
2017-12-27T00:36:35.888Z,98314
2017-12-27T00:41:37.365Z,98309
2017-12-27T00:46:38.870Z,98306
2017-12-27T00:51:40.363Z,98302
2017-12-27T00:56:42.615Z,98286
2017-12-27T01:01:44.072Z,98261
2017-12-27T01:06:45.643Z,98263
2017-12-27T01:11:47.159Z,98253
2017-12-27T01:16:49.465Z,98239
2017-12-27T01:21:51.000Z,98236
2017-12-27T01:26:53.265Z,98233
2017-12-27T01:31:54.842Z,98206
2017-12-27T01:36:57.179Z,98187
2017-12-27T01:41:58.770Z,98179
2017-12-27T01:47:10.520Z,98180
2017-12-27T01:52:12.721Z,98169
2017-12-27T01:57:14.369Z,98156
2017-12-27T02:02:16.644Z,98143
2017-12-27T02:07:18.157Z,98132
2017-12-27T02:12:19.695Z,98111
2017-12-27T02:17:21.961Z,98111
2017-12-27T02:22:23.514Z,98089
2017-12-27T02:27:25.067Z,98072
2017-12-27T02:32:26.577Z,98046
2017-12-27T02:37:28.864Z,98038
2017-12-27T02:42:31.140Z,98017
2017-12-27T02:47:33.365Z,97994
2017-12-27T02:52:34.916Z,97969
2017-12-27T02:57:36.413Z,97963
2017-12-27T03:02:37.886Z,97948
2017-12-27T03:07:39.342Z,97926
2017-12-27T03:12:40.868Z,97914
2017-12-27T03:17:43.110Z,97904
2017-12-27T03:22:44.615Z,97878
2017-12-27T03:27:46.873Z,97875
2017-12-27T03:32:48.412Z,97835
2017-12-27T03:37:49.965Z,97853
2017-12-27T03:42:51.538Z,97827
2017-12-27T03:47:53.108Z,97827
2017-12-27T03:52:54.641Z,97832
2017-12-27T03:57:56.985Z,97818
2017-12-27T04:02:58.459Z,97809
2017-12-27T04:08:00.016Z,97794
2017-12-27T04:13:01.567Z,97790
2017-12-27T04:18:03.081Z,97793
2017-12-27T04:23:04.628Z,97782
2017-12-27T04:28:06.146Z,97786
2017-12-27T04:33:08.402Z,97781
2017-12-27T04:38:09.978Z,97782
2017-12-27T04:43:12.222Z,97753
2017-12-27T04:48:13.766Z,97758
2017-12-27T04:53:15.340Z,97756
2017-12-27T04:58:16.853Z,97748
2017-12-27T05:03:18.388Z,97727
2017-12-27T05:08:19.912Z,97713
2017-12-27T05:13:22.238Z,97704
2017-12-27T05:18:23.786Z,97690
2017-12-27T05:23:25.302Z,97697
2017-12-27T05:28:26.841Z,97695
2017-12-27T05:33:28.354Z,97685
2017-12-27T05:38:30.585Z,97690
2017-12-27T05:43:32.068Z,97687
2017-12-27T05:48:33.548Z,97701
2017-12-27T05:53:35.862Z,97701
2017-12-27T05:58:38.157Z,97672
2017-12-27T06:03:39.639Z,97675
2017-12-27T06:08:41.160Z,97674
2017-12-27T06:13:42.707Z,97666
2017-12-27T06:18:44.204Z,97663
2017-12-27T06:23:45.720Z,97643
2017-12-27T06:28:47.276Z,97645
2017-12-27T06:33:48.837Z,97636
2017-12-27T06:38:51.184Z,97629
2017-12-27T06:43:52.705Z,97623
2017-12-27T06:48:54.246Z,97620
2017-12-27T06:53:56.561Z,97622
2017-12-27T06:58:58.034Z,97614
2017-12-27T07:03:59.559Z,97620
2017-12-27T07:09:01.873Z,97603
2017-12-27T07:14:03.432Z,97595
2017-12-27T07:19:04.991Z,97593
2017-12-27T07:24:06.647Z,97588
2017-12-27T07:29:08.884Z,97584
2017-12-27T07:34:10.421Z,97584
2017-12-27T07:39:11.969Z,97574
2017-12-27T07:44:14.220Z,97580
2017-12-27T07:49:15.816Z,97570
2017-12-27T07:54:18.068Z,97566
2017-12-27T07:59:19.559Z,97553
2017-12-27T08:04:21.069Z,97557
2017-12-27T08:09:22.544Z,97554
2017-12-27T08:14:24.100Z,97546
2017-12-27T08:19:25.553Z,97533
2017-12-27T08:24:27.114Z,97527
2017-12-27T08:29:28.666Z,97513
2017-12-27T08:34:30.968Z,97499
2017-12-27T08:39:33.321Z,97513
2017-12-27T08:44:34.840Z,97503
2017-12-27T08:49:36.329Z,97494
2017-12-27T08:54:37.845Z,97492
2017-12-27T08:59:40.145Z,97479
2017-12-27T09:04:41.661Z,97475
2017-12-27T09:09:43.212Z,97478
2017-12-27T09:14:44.791Z,97477
2017-12-27T09:19:46.320Z,97464
2017-12-27T09:24:47.882Z,97466
2017-12-27T09:29:49.487Z,97463
2017-12-27T09:34:58.175Z,97471
2017-12-27T09:39:59.709Z,97473
2017-12-27T09:45:01.272Z,97463
2017-12-27T09:50:02.730Z,97465
2017-12-27T09:55:04.271Z,97445
2017-12-27T10:00:05.757Z,97433
2017-12-27T10:05:07.278Z,97430
2017-12-27T10:10:09.557Z,97426
2017-12-27T10:15:11.853Z,97406
2017-12-27T10:20:13.361Z,97406
2017-12-27T10:25:14.924Z,97394
2017-12-27T10:30:16.486Z,97385
2017-12-27T10:35:18.141Z,97379
2017-12-27T10:40:19.645Z,97381
2017-12-27T10:45:21.186Z,97367
2017-12-27T10:50:22.714Z,97354
2017-12-27T10:55:24.996Z,97357
2017-12-27T11:00:27.202Z,97345
2017-12-27T11:05:28.728Z,97336
2017-12-27T11:10:30.235Z,97325
2017-12-27T11:15:31.923Z,97320
2017-12-27T11:20:33.432Z,97328
2017-12-27T11:25:34.978Z,97331
2017-12-27T11:30:36.528Z,97321
2017-12-27T11:35:38.072Z,97317
2017-12-27T11:40:40.359Z,97307
2017-12-27T11:45:41.868Z,97303
2017-12-27T11:50:43.402Z,97286
2017-12-27T11:55:44.959Z,97294
2017-12-27T12:00:46.508Z,97288
2017-12-27T12:05:48.063Z,97274
2017-12-27T12:10:49.585Z,97245
2017-12-27T12:15:51.132Z,97255
2017-12-27T12:20:52.657Z,97243
2017-12-27T12:25:54.192Z,97243
2017-12-27T12:30:55.678Z,97243
2017-12-27T12:35:57.244Z,97240
2017-12-27T12:40:58.674Z,97234
2017-12-27T12:46:00.147Z,97229
2017-12-27T12:51:01.585Z,97222
2017-12-27T12:56:03.842Z,97226
2017-12-27T13:01:05.353Z,97222
2017-12-27T13:06:06.906Z,97215
2017-12-27T13:11:09.224Z,97211
2017-12-27T13:16:10.940Z,97196
2017-12-27T13:21:12.676Z,97193
2017-12-27T13:26:14.220Z,97192
2017-12-27T13:31:15.761Z,97181
2017-12-27T13:36:18.194Z,97178
2017-12-27T13:41:19.625Z,97182
2017-12-27T13:46:21.906Z,97189
2017-12-27T13:51:24.197Z,97178
2017-12-27T13:56:26.509Z,97177
2017-12-27T14:01:27.959Z,97175
2017-12-27T14:06:29.473Z,97174
2017-12-27T14:11:31.032Z,97179
2017-12-27T14:16:32.525Z,97168
2017-12-27T14:21:34.000Z,97175
2017-12-27T14:26:36.276Z,97178
2017-12-27T14:31:38.000Z,97179
2017-12-27T14:36:39.584Z,97180
2017-12-27T14:41:41.084Z,97189
2017-12-27T14:46:42.657Z,97186
2017-12-27T14:51:44.176Z,97183
2017-12-27T14:56:45.694Z,97183
2017-12-27T15:01:47.184Z,97179
2017-12-27T15:06:48.736Z,97184
2017-12-27T15:11:50.292Z,97196
2017-12-27T15:16:52.649Z,97199
2017-12-27T15:21:54.191Z,97197
2017-12-27T15:26:55.673Z,97196
2017-12-27T15:31:57.211Z,97197
2017-12-27T15:36:58.804Z,97208
2017-12-27T15:42:00.360Z,97203
2017-12-27T15:47:01.953Z,97202
2017-12-27T15:52:04.335Z,97201
2017-12-27T15:57:05.865Z,97208
2017-12-27T16:02:07.429Z,97209
2017-12-27T16:07:08.946Z,97207
2017-12-27T16:12:10.484Z,97223
2017-12-27T16:17:12.036Z,97225
2017-12-27T16:22:13.616Z,97228
2017-12-27T16:27:15.083Z,97230
2017-12-27T16:32:16.595Z,97234
2017-12-27T16:37:18.103Z,97230
2017-12-27T16:42:19.711Z,97244
2017-12-27T16:47:21.265Z,97239
2017-12-27T16:52:22.768Z,97249
2017-12-27T16:57:24.352Z,97242
2017-12-27T17:02:25.887Z,97238
2017-12-27T17:07:27.424Z,97244
2017-12-27T17:12:28.916Z,97237
2017-12-27T17:17:30.525Z,97231
2017-12-27T17:22:32.734Z,97238
2017-12-27T17:27:34.224Z,97248
2017-12-27T17:32:35.787Z,97268
2017-12-27T17:37:44.279Z,97272
2017-12-27T17:42:45.814Z,97281
2017-12-27T17:47:47.411Z,97284
2017-12-27T17:52:49.888Z,97285
2017-12-27T17:57:51.437Z,97280
2017-12-27T18:02:53.002Z,97294
2017-12-27T18:07:54.481Z,97301
2017-12-27T18:12:55.971Z,97310
2017-12-27T18:17:58.163Z,97297
2017-12-27T18:23:00.509Z,97300
2017-12-27T18:28:02.064Z,97302
2017-12-27T18:33:03.498Z,97306
2017-12-27T18:38:05.275Z,97306
2017-12-27T18:43:06.741Z,97319
2017-12-27T18:48:08.280Z,97322
2017-12-27T18:53:10.528Z,97310
2017-12-27T18:58:12.147Z,97319
2017-12-27T19:03:14.471Z,97313
2017-12-27T19:08:16.020Z,97324
2017-12-27T19:13:17.558Z,97334
2017-12-27T19:18:19.757Z,97345
2017-12-27T19:23:21.244Z,97340
2017-12-27T19:28:22.812Z,97348
2017-12-27T19:33:24.371Z,97360
2017-12-27T19:38:25.907Z,97354
2017-12-27T19:43:28.205Z,97373
2017-12-27T19:48:29.800Z,97363
2017-12-27T19:53:31.336Z,97357
2017-12-27T19:58:33.646Z,97360
2017-12-27T20:03:35.239Z,97367
2017-12-27T20:08:36.788Z,97367
2017-12-27T20:13:38.390Z,97373
2017-12-27T20:18:39.936Z,97354
2017-12-27T20:23:41.424Z,97374
2017-12-27T20:28:42.986Z,97377
2017-12-27T20:33:44.517Z,97383
2017-12-27T20:38:46.144Z,97394
2017-12-27T20:43:47.633Z,97393
2017-12-27T20:48:49.958Z,97393
2017-12-27T20:53:51.425Z,97402
2017-12-27T20:58:52.974Z,97408
2017-12-27T21:03:54.574Z,97407
2017-12-27T21:08:56.116Z,97403
2017-12-27T21:13:57.718Z,97413
2017-12-27T21:18:59.223Z,97421
2017-12-27T21:24:01.594Z,97429
2017-12-27T21:29:03.177Z,97434
2017-12-27T21:34:05.567Z,97440
2017-12-27T21:39:07.838Z,97437
2017-12-27T21:44:09.403Z,97441
2017-12-27T21:49:16.921Z,97440
2017-12-27T21:54:19.245Z,97444
2017-12-27T21:59:26.880Z,97447
2017-12-27T22:04:28.414Z,97454
2017-12-27T22:09:29.925Z,97459
2017-12-27T22:14:31.621Z,97475
2017-12-27T22:19:33.920Z,97475
2017-12-27T22:24:36.220Z,97480
2017-12-27T22:29:37.727Z,97491
2017-12-27T22:34:39.318Z,97494
2017-12-27T22:39:40.910Z,97494
2017-12-27T22:44:42.438Z,97492
2017-12-27T22:49:44.012Z,97498
2017-12-27T22:54:45.671Z,97496
2017-12-27T22:59:47.241Z,97502
2017-12-27T23:04:48.799Z,97502
2017-12-27T23:09:50.345Z,97504
2017-12-27T23:14:51.938Z,97530
2017-12-27T23:19:53.542Z,97536
2017-12-27T23:24:55.846Z,97535
2017-12-27T23:29:57.396Z,97539
2017-12-27T23:34:59.688Z,97531
2017-12-27T23:40:02.013Z,97533
2017-12-27T23:45:04.409Z,97535
2017-12-27T23:50:05.958Z,97537
2017-12-27T23:55:07.481Z,97538
